Meeham, Mississippi
Current Conditions -  °F | °C
As of 9:58 AM on Saturday 20 Dec 2014 (Local Time) from KMEI Reporting Station
Overcast Overcast  
Wind Chill: 42°   Ceiling: 2500
Heat Index: 46°   Visibility: 10mi
Dew Point: 41°   Wind: 8mph
Humidity: 83%   Direction: 20°NNE
Pressure: 30.23"   Gusts: NA
Location:  32.3221°N, 88.5771°W
Report Text: KMEI 201558Z 02007KT 10SM OVC025 08/05 A3023 RMK AO2 SLP237 T00780050
Loading
Personal Weather Stations






























Interactive Weather Map New forecast layout! Learn more

10-Day Weather Forecast

Advertisements
Track Severe Weather on mobile